06D

Rolla Municipal Airport

Rolla, North Dakota, USA
METAR K06D 132235Z AUTO 20010KT 10SM OVC050 M04/M07 A3019 RMK AO2
Observed Flight Rules
Nov-13 @ 22:35 UTC (8 minutes ago) Visual Flight Rules
Wind Visibility Clouds
200° at 10 knots 10 miles
  • Overcast at 5,000' AGL
Temperatures Readings
Current -4°C / 25°F
Dewpoint -7°C / 19°F
Humidity 80%
Altimeter 30.19" Hg
Pressure 1022 hPa
Elevation 556
METAR K06D 132235Z AUTO 20010KT 10SM OVC050 M04/M07 A3019 RMK AO2
Observed Flight Rules
Nov-13 @ 22:35 UTC
(8 minutes ago)
VFR
Wind Visibility
200° at 10 knots 10 miles
Clouds
  • Overcast at 5,000' AGL
Temperature Dewpoint
-4°C / 25°F -7°C / 19°F
Humidity Altimeter Pressure
80% 30.19" Hg 1022 hPa